AirNav   Everest Fuels
 
 1621 users online  

31OK Siegfried Point Heliport
Disney, Oklahoma, USA

GOING TO DISNEY?


FAA INFORMATION EFFECTIVE 22 APRIL 2021

Location

FAA Identifier: 31OK
Lat/Long: 36-29-11.3000N 094-59-26.8600W
36-29.188333N 094-59.447667W
36.4864722,-94.9907944
(estimated)
Elevation: 740 ft. / 226 m (estimated)
Variation: 05E (1990)
From city: 2 miles E of DISNEY, OK
Time zone: UTC -5 (UTC -6 during Standard Time)
Zip code: 74340

Heliport Operations

Heliport use: Private use. Permission required prior to landing
Activation date: 05/1994
Control tower: no
ARTCC: KANSAS CITY CENTER
FSS: MC ALESTER FLIGHT SERVICE STATION
Attendance: UNATNDD
Segmented circle: no

Heliport Communications

WX AWOS-3 at GMJ (14 nm NE): 119.025 (918-786-8350)

Nearby radio navigation aids

VOR radial/distance  VOR name  Freq  Var
EOSr224/34.2NEOSHO VOR/DME117.3007E

 
NDB name  Hdg/Dist  Freq  Var  ID
SILOAM SPRINGS302/30.128404ESLG ... .-.. --.

Heliport Services

Runway Information

Helipad H1

Dimensions: 30 x 20 ft. / 9 x 6 m
Surface: wood
WOOD DECK ON WATER.
Traffic pattern: leftleft

Heliport Ownership and Management from official FAA records

Ownership: Privately-owned
Owner: ROBIN SIEGFRIED
PO BOX 3629
TULSA, OK 74114
Phone 918-272-8000
Manager: ROBIN SIEGFRIED
PO BOX 3629
TULSA, OK 74114
Phone 918-272-8000

Heliport Operational Statistics

Aircraft based on the field: 1
Helicopters: 1
    

Additional Remarks

FOR CD CTC KANSAS CITY ARTCC AT 913-254-8508.

Instrument Procedures

There are no published instrument procedures at 31OK.

Some nearby airports with instrument procedures:

1K8 - South Grand Lake Regional Airport (4 nm N)
KGMJ - Grove Municipal Airport (14 nm NE)
H71 - Mid-America Industrial Airport (23 nm SW)
KMIO - Miami Regional Airport (26 nm N)
KGCM - Claremore Regional Airport (26 nm SW)
 
Loc | Ops | Rwys | IFR | FBO | Links
Com | Nav | Svcs | Stats | Notes
Area around 31OK (Siegfried Point Heliport)
 
Road maps at: MapQuest Bing Google
 
Aerial photo
No photo
 
Sectional chart

 
Airport distance calculator
Flying to Siegfried Point Heliport? Find the distance to fly.

From to 31OK

Sunrise and sunset
Times for 17-May-2021
 Local
(UTC-5)
 Zulu
(UTC)
Morning civil twilight05:4410:44
Sunrise06:1211:12
Sunset20:2001:20
Evening civil twilight20:4901:49

Current date and time
Zulu (UTC)  17-May-2021 17:05:45
Local (UTC-5)  17-May-2021 12:05:45
 
METAR
KGMJ 
14nm NE 
171655Z AUTO 27004KT SCT016 OVC049 22/18 A2990 RMK AO2 PWINO
KH71 
23nm SW 
171655Z AUTO 00000KT 10SM SCT030 OVC038 24/17 A2987 RMK AO2
KMIO 
26nm N 
171655Z AUTO VRB05KT 10SM FEW013 SCT018 OVC036 20/19 A2988 RMK AO2
KGCM 
26nm SW 
171655Z AUTO 36003KT 10SM SCT016 SCT036 22/16 A2989 RMK AO2
TAF
KXNA 
36nm E 
171140Z 1712/1812 19009KT P6SM VCSH SCT007 BKN012 TEMPO 1712/1713 3SM RA BKN008 FM171300 20009KT P6SM VCSH BKN008 BKN015 FM171600 19006KT P6SM BKN015 FM172100 20006KT P6SM BKN025 FM180100 19005KT P6SM SCT035 BKN100 FM180600 16004KT P6SM SCT010 BKN015
KROG 
44nm E 
171140Z 1712/1812 17005KT P6SM VCSH SCT006 BKN015 TEMPO 1712/1713 3SM RA BKN005 FM171300 20009KT P6SM VCSH BKN006 BKN012 FM171600 19006KT P6SM BKN015 FM172100 20006KT P6SM BKN025 FM180100 15005KT P6SM SCT035 BKN100 FM180600 14004KT P6SM BKN010 BKN015
NOTAMs
Click for the latest NOTAMs
NOTAMs are issued by the DoD/FAA and will open in a separate window not controlled by AirNav.

 

 
 

Would you like to see your business listed on this page?

 If your business provides an interesting product or service to pilots, flight crews, aircraft, or users of the Siegfried Point Heliport, you should consider listing it here.  To start the listing process, click on the button below
 
Add a business
 

Other Pages about Siegfried Point Heliport

Update a link
 
Copyright © AirNav, LLC. All rights reserved. Privacy Policy  Contact